Time;durP1;ratioP1;P1;durP2;ratioP2;P2;SDS_P1;SDS_P2;PMS_P1;PMS_P2;Temp;Humidity;BMP_temperature;BMP_pressure;BME280_temperature;BME280_humidity;BME280_pressure;Samples;Min_cycle;Max_cycle;Signal;HPM_P1;HPM_P2
2022/05/19 00:01:01;;;;;;;3.90;2.80;;;;;;;23.23;52.38;101797.22;5072036;28;20037;-58
2022/05/19 00:03:25;;;;;;;4.28;3.40;;;;;;;23.19;52.32;101793.19;5085360;28;20029;-58
2022/05/19 00:05:50;;;;;;;4.68;3.22;;;;;;;23.23;52.26;101790.97;5086120;28;20061;-57
2022/05/19 00:08:15;;;;;;;4.25;2.80;;;;;;;23.19;52.42;101780.50;5083988;28;20048;-57
2022/05/19 00:10:41;;;;;;;4.05;3.00;;;;;;;23.22;52.22;101790.13;5085480;28;20028;-56
2022/05/19 00:13:06;;;;;;;4.55;3.20;;;;;;;23.22;52.08;101776.56;5083055;28;20036;-57
2022/05/19 00:15:31;;;;;;;3.13;2.63;;;;;;;23.22;52.18;101776.56;5080273;28;20033;-58
2022/05/19 00:17:56;;;;;;;3.45;3.10;;;;;;;23.22;52.18;101781.16;5084273;28;20032;-57
2022/05/19 00:20:22;;;;;;;5.82;3.92;;;;;;;23.21;52.09;101777.59;5078290;28;20530;-57
2022/05/19 00:22:47;;;;;;;3.50;2.58;;;;;;;23.22;52.21;101781.16;5086039;28;20060;-58
2022/05/19 00:25:12;;;;;;;3.28;2.50;;;;;;;23.22;52.21;101773.00;5077434;28;20039;-58
2022/05/19 00:27:37;;;;;;;3.65;3.03;;;;;;;23.22;52.12;101773.00;5085596;28;20039;-55
2022/05/19 00:30:03;;;;;;;4.25;3.13;;;;;;;23.20;52.12;101765.91;5077078;28;20045;-57
2022/05/19 00:32:29;;;;;;;3.47;2.65;;;;;;;23.20;51.96;101768.59;5085060;28;20055;-56
2022/05/19 00:34:55;;;;;;;3.42;2.58;;;;;;;23.20;51.90;101768.59;5085464;28;20436;-56
2022/05/19 00:37:20;;;;;;;4.78;2.97;;;;;;;23.18;51.82;101761.66;5085528;28;20080;-55
2022/05/19 00:39:46;;;;;;;3.45;2.63;;;;;;;23.21;51.94;101766.72;5080875;28;20120;-56
2022/05/19 00:44:59;;;;;;;3.35;2.28;;;;;;;23.20;51.97;101754.19;5080193;28;20128;-58
2022/05/19 00:47:36;;;;;;;3.97;2.92;;;;;;;23.20;51.77;101759.63;5084267;28;20767;-58
2022/05/19 00:50:03;;;;;;;4.28;3.40;;;;;;;23.20;51.77;101754.19;5076736;28;20029;-54
2022/05/19 00:52:34;;;;;;;3.90;3.03;;;;;;;23.20;51.83;101765.06;5083570;28;20029;-56
2022/05/19 00:55:04;;;;;;;3.67;2.60;;;;;;;23.19;51.78;101763.34;5083930;28;20040;-55
2022/05/19 00:57:31;;;;;;;3.80;2.67;;;;;;;23.20;51.88;101759.63;5076731;28;20481;-55
2022/05/19 01:00:07;;;;;;;4.72;3.20;;;;;;;23.18;51.82;101757.06;5075927;28;20025;-55
2022/05/19 01:02:41;;;;;;;3.20;2.88;;;;;;;23.18;51.97;101753.50;5084751;28;20393;-56
2022/05/19 01:05:08;;;;;;;3.40;2.67;;;;;;;23.17;51.70;101747.25;5075294;28;20040;-56
2022/05/19 01:07:40;;;;;;;4.35;2.85;;;;;;;23.18;51.78;101745.38;5085266;28;20032;-57
2022/05/19 01:10:06;;;;;;;3.10;2.80;;;;;;;23.18;51.66;101739.94;5074974;28;20032;-58
2022/05/19 01:12:33;;;;;;;3.65;3.08;;;;;;;23.14;51.88;101728.59;5075910;28;20050;-56
2022/05/19 01:15:03;;;;;;;3.40;2.80;;;;;;;23.17;52.05;101733.69;5067018;28;20063;-57
2022/05/19 01:17:28;;;;;;;3.83;2.92;;;;;;;23.17;51.73;101733.69;5084118;28;20032;-57
2022/05/19 01:19:59;;;;;;;2.95;2.45;;;;;;;23.18;51.64;101732.66;5083949;28;20077;-57
2022/05/19 01:22:33;;;;;;;4.55;2.80;;;;;;;23.17;51.71;101720.13;5072273;28;20013;-56
2022/05/19 01:25:13;;;;;;;3.90;2.40;;;;;;;23.16;51.46;101715.72;5082307;28;20027;-54
2022/05/19 01:27:38;;;;;;;3.63;3.33;;;;;;;23.17;51.63;101716.56;5083309;28;20066;-56
2022/05/19 01:30:07;;;;;;;3.55;2.70;;;;;;;23.16;51.45;101710.28;5084140;28;20412;-54
2022/05/19 01:32:32;;;;;;;;;;;;;;;23.17;51.71;101703.00;5077185;28;20025;-55
2022/05/19 01:34:58;;;;;;;3.85;2.92;;;;;;;23.15;51.66;101702.31;5084049;28;19912;-57
2022/05/19 01:37:24;;;;;;;4.15;3.35;;;;;;;23.15;51.40;101705.03;5084956;28;20280;-55
2022/05/19 01:39:53;;;;;;;4.20;3.67;;;;;;;23.14;51.33;101709.63;5084427;28;20024;-55
2022/05/19 01:42:29;;;;;;;5.38;3.60;;;;;;;23.09;51.66;101694.91;5073962;28;20081;-54
2022/05/19 01:45:27;;;;;;;3.75;3.25;;;;;;;23.14;51.29;101704.19;5083336;28;20028;-55
2022/05/19 01:48:04;;;;;;;4.28;2.95;;;;;;;23.13;51.29;101699.78;5076746;28;20071;-57
2022/05/19 01:50:34;;;;;;;5.25;3.30;;;;;;;23.13;51.42;101702.50;5081103;28;20017;-57
2022/05/19 01:53:15;;;;;;;3.67;2.88;;;;;;;23.14;51.28;101695.22;5072582;28;20033;-56
2022/05/19 01:56:02;;;;;;;3.45;2.47;;;;;;;23.13;51.28;101693.53;5082829;28;20111;-57
2022/05/19 01:58:39;;;;;;;4.25;3.00;;;;;;;23.13;51.47;101693.53;5083986;28;20021;-56
2022/05/19 02:01:05;;;;;;;5.93;3.83;;;;;;;23.13;51.42;101685.38;5076869;28;20396;-55
2022/05/19 02:03:44;;;;;;;5.93;4.65;;;;;;;23.11;51.30;101674.72;5073989;28;20029;-55
2022/05/19 02:06:16;;;;;;;5.28;3.75;;;;;;;23.12;51.37;101676.41;5076124;28;20039;-57
2022/05/19 02:08:54;;;;;;;4.40;4.00;;;;;;;23.11;51.17;101669.31;5082199;28;20084;-55
2022/05/19 02:11:26;;;;;;;4.70;4.28;;;;;;;23.11;51.42;101672.00;5077419;28;20087;-57
2022/05/19 02:13:53;;;;;;;5.65;4.43;;;;;;;23.10;51.15;101669.47;5065618;28;20059;-57
2022/05/19 02:16:19;;;;;;;7.10;4.38;;;;;;;23.12;51.37;101670.97;5073272;28;20056;-55
2022/05/19 02:18:45;;;;;;;5.15;3.85;;;;;;;23.11;51.09;101665.75;5083112;28;20028;-58
2022/05/19 02:21:10;;;;;;;6.18;5.05;;;;;;;23.11;51.54;101669.31;5079006;28;20021;-57
2022/05/19 02:23:36;;;;;;;4.90;4.07;;;;;;;23.11;51.09;101663.88;5072301;28;20028;-56
2022/05/19 02:26:02;;;;;;;4.70;4.13;;;;;;;23.11;51.29;101663.88;5081676;28;20035;-55
2022/05/19 02:28:31;;;;;;;5.07;4.05;;;;;;;23.10;51.40;101656.72;5069069;28;20032;-56
2022/05/19 02:30:57;;;;;;;5.38;4.07;;;;;;;23.11;51.19;101660.31;5080290;28;20032;-57
2022/05/19 02:33:23;;;;;;;5.72;4.63;;;;;;;23.10;51.51;101639.63;5082782;28;20052;-56
2022/05/19 02:35:48;;;;;;;5.55;5.05;;;;;;;23.10;51.56;101636.91;5066644;28;20055;-56
2022/05/19 02:38:15;;;;;;;6.93;4.95;;;;;;;23.02;51.39;101621.53;5074437;28;20039;-55
2022/05/19 02:40:41;;;;;;;5.57;4.75;;;;;;;23.10;51.24;101634.19;5083158;28;20032;-57
2022/05/19 02:43:07;;;;;;;5.25;4.03;;;;;;;23.09;51.29;101627.94;5075006;28;20028;-56
2022/05/19 02:45:32;;;;;;;4.93;3.65;;;;;;;23.10;51.28;101628.78;5082053;28;20036;-55
2022/05/19 02:47:58;;;;;;;4.65;4.05;;;;;;;23.07;51.20;101632.69;5082587;28;20028;-58
2022/05/19 02:50:24;;;;;;;5.20;4.10;;;;;;;23.09;51.35;101637.94;5082337;28;20496;-55
2022/05/19 02:52:49;;;;;;;5.03;3.95;;;;;;;23.08;51.14;101633.53;5083098;28;20135;-58
2022/05/19 02:55:15;;;;;;;5.03;4.28;;;;;;;23.07;51.04;101624.56;5081294;28;20068;-56
2022/05/19 02:57:41;;;;;;;5.72;4.00;;;;;;;23.08;51.14;101631.69;5071606;28;20568;-58
2022/05/19 03:00:12;;;;;;;4.57;3.95;;;;;;;23.08;51.13;101628.13;5079510;28;20031;-58
2022/05/19 03:02:37;;;;;;;4.97;3.92;;;;;;;23.07;51.29;101632.69;5082673;28;20044;-57
2022/05/19 03:05:03;;;;;;;6.00;4.88;;;;;;;23.07;51.20;101642.72;5082633;28;20028;-58
2022/05/19 03:07:28;;;;;;;4.80;3.88;;;;;;;23.07;51.30;101646.25;5080432;28;20056;-56
2022/05/19 03:09:53;;;;;;;4.25;3.78;;;;;;;23.06;51.13;101644.56;5077242;28;20032;-57
2022/05/19 03:12:19;;;;;;;4.88;3.30;;;;;;;23.06;50.98;101649.13;5072825;28;20025;-56
2022/05/19 03:14:44;;;;;;;3.70;2.88;;;;;;;23.07;51.01;101656.28;5075867;28;20021;-57
2022/05/19 03:17:10;;;;;;;4.68;3.72;;;;;;;23.07;50.97;101659.00;5082361;28;20088;-56
2022/05/19 03:19:36;;;;;;;4.72;4.05;;;;;;;23.06;51.08;101651.84;5082380;28;20047;-57
2022/05/19 03:22:02;;;;;;;4.53;3.88;;;;;;;22.99;51.19;101648.19;5075122;28;20028;-56
2022/05/19 03:24:27;;;;;;;5.03;3.75;;;;;;;23.01;51.26;101649.66;5073594;28;20040;-56
2022/05/19 03:26:53;;;;;;;4.30;3.70;;;;;;;23.05;51.33;101659.16;5067915;28;20025;-55
2022/05/19 03:29:18;;;;;;;5.15;4.22;;;;;;;23.04;51.23;101660.19;5082787;28;20035;-55
2022/05/19 03:31:43;;;;;;;4.57;3.17;;;;;;;23.04;51.28;101652.03;5078470;28;20033;-56
2022/05/19 03:34:09;;;;;;;3.92;3.10;;;;;;;23.02;51.14;101656.78;5072349;28;20036;-58
2022/05/19 03:36:34;;;;;;;4.55;3.80;;;;;;;23.04;51.15;101656.63;5083840;28;20025;-56
2022/05/19 03:38:59;;;;;;;5.60;4.10;;;;;;;23.04;50.97;101662.03;5085703;28;20039;-56
2022/05/19 03:41:25;;;;;;;4.20;3.60;;;;;;;23.03;51.10;101658.50;5078050;28;20033;-55
2022/05/19 03:43:50;;;;;;;4.35;3.53;;;;;;;23.03;51.16;101673.94;5078175;28;20080;-55
2022/05/19 03:46:15;;;;;;;4.88;4.03;;;;;;;22.92;51.24;101654.28;5079255;28;20036;-54
2022/05/19 03:48:40;;;;;;;4.30;3.45;;;;;;;23.03;50.96;101672.06;5084318;28;20051;-56
2022/05/19 03:51:16;;;;;;;4.35;3.35;;;;;;;23.02;50.98;101675.75;5086409;28;20037;-56
2022/05/19 03:53:41;;;;;;;3.42;2.45;;;;;;;23.03;51.08;101695.63;5076909;28;20039;-56
2022/05/19 03:56:06;;;;;;;3.00;2.10;;;;;;;23.03;50.68;101709.19;5078061;28;20051;-57
2022/05/19 03:58:32;;;;;;;2.50;2.17;;;;;;;23.01;50.81;101801.56;5086526;28;20039;-56
2022/05/19 04:00:57;;;;;;;2.30;1.80;;;;;;;23.03;50.45;101771.56;5082728;28;20028;-57
2022/05/19 04:03:22;;;;;;;1.92;1.73;;;;;;;22.95;50.31;101789.56;5080819;28;20012;-57
2022/05/19 04:05:47;;;;;;;3.45;1.77;;;;;;;23.02;50.38;101794.25;5077630;28;20507;-58
2022/05/19 04:08:13;;;;;;;2.40;1.55;;;;;;;23.01;50.26;101790.72;5086369;28;20021;-58
2022/05/19 04:10:44;;;;;;;6.68;2.13;;;;;;;23.01;49.88;101779.84;5077592;28;20032;-57
2022/05/19 04:13:10;;;;;;;3.05;2.10;;;;;;;23.02;50.45;101784.25;5076921;28;20042;-57
2022/05/19 04:15:35;;;;;;;2.03;1.77;;;;;;;23.03;50.41;101774.28;5085584;28;20098;-57
2022/05/19 04:18:00;;;;;;;3.10;2.08;;;;;;;22.99;50.82;101765.63;5081315;28;20331;-54
2022/05/19 04:20:30;;;;;;;3.95;2.90;;;;;;;22.97;50.61;101761.41;5080043;28;20507;-56
2022/05/19 04:22:55;;;;;;;3.15;2.28;;;;;;;22.97;50.66;101761.41;5080851;28;20063;-56
2022/05/19 04:25:21;;;;;;;3.58;2.90;;;;;;;23.01;50.86;101768.16;5083209;28;20023;-58
2022/05/19 04:27:46;;;;;;;3.28;2.63;;;;;;;23.01;50.86;101769.00;5080753;28;20032;-56
2022/05/19 04:30:11;;;;;;;3.58;2.80;;;;;;;23.00;50.80;101764.63;5079687;28;20103;-57
2022/05/19 04:32:36;;;;;;;4.13;3.22;;;;;;;23.01;51.00;101762.75;5080002;28;20028;-57
2022/05/19 04:35:02;;;;;;;2.65;2.10;;;;;;;23.00;51.13;101769.19;5081141;28;20037;-57
2022/05/19 04:37:27;;;;;;;2.28;2.08;;;;;;;23.01;50.88;101765.47;5082017;28;20032;-58
2022/05/19 04:39:52;;;;;;;3.60;2.72;;;;;;;23.00;51.06;101761.91;5082509;28;20021;-57
2022/05/19 04:42:18;;;;;;;3.05;2.75;;;;;;;23.01;50.90;101754.59;5081387;28;20074;-56
2022/05/19 04:44:43;;;;;;;3.33;2.78;;;;;;;23.01;50.90;101757.31;5076865;28;20040;-58
2022/05/19 04:47:08;;;;;;;4.18;2.80;;;;;;;23.00;51.32;101758.34;5076060;28;20070;-57
2022/05/19 04:49:33;;;;;;;3.90;3.00;;;;;;;23.01;51.31;101754.59;5084337;28;20374;-57
2022/05/19 04:51:59;;;;;;;3.78;3.03;;;;;;;23.00;51.12;101758.34;5084614;28;20028;-57
2022/05/19 04:54:24;;;;;;;3.60;2.60;;;;;;;23.00;51.36;101751.06;5077899;28;20052;-57
2022/05/19 04:56:50;;;;;;;2.95;2.60;;;;;;;22.99;51.24;101762.94;5075394;28;20074;-57
2022/05/19 04:59:15;;;;;;;3.33;1.98;;;;;;;23.00;51.36;101756.47;5081169;28;20032;-58
2022/05/19 05:01:45;;;;;;;3.38;2.92;;;;;;;23.00;51.39;101755.63;5073714;28;20055;-57
2022/05/19 05:04:11;;;;;;;3.47;2.95;;;;;;;23.01;51.48;101757.31;5067821;28;20047;-56
2022/05/19 05:06:36;;;;;;;3.67;3.10;;;;;;;23.02;51.36;101759.00;5066122;28;20033;-57
2022/05/19 05:09:02;;;;;;;2.10;1.85;;;;;;;23.02;51.25;101767.97;5074952;28;20166;-58
2022/05/19 05:11:28;;;;;;;3.47;2.65;;;;;;;23.02;51.00;101769.84;5078848;28;20029;-57
2022/05/19 05:13:53;;;;;;;2.55;2.13;;;;;;;23.00;51.24;101766.47;5071063;28;20047;-57
2022/05/19 05:16:18;;;;;;;3.75;2.60;;;;;;;23.02;51.24;101769.84;5070652;28;20094;-57
2022/05/19 05:18:43;;;;;;;3.10;2.42;;;;;;;23.03;51.17;101782.41;5074632;28;20059;-56
2022/05/19 05:21:11;;;;;;;2.97;2.00;;;;;;;23.01;51.27;101790.72;5078991;28;20051;-56
2022/05/19 05:23:37;;;;;;;1.85;1.55;;;;;;;23.02;50.95;101799.69;5081253;28;20065;-57
2022/05/19 05:26:03;;;;;;;1.90;1.70;;;;;;;23.03;50.80;101790.56;5076818;28;20025;-54
2022/05/19 05:28:30;;;;;;;2.33;1.90;;;;;;;23.02;50.96;101786.13;5082399;28;20023;-56
2022/05/19 05:30:55;;;;;;;1.90;1.60;;;;;;;23.02;50.83;101795.09;5082145;28;20028;-57
2022/05/19 05:33:20;;;;;;;1.75;1.50;;;;;;;23.03;50.69;101785.13;5081329;28;20074;-57
2022/05/19 05:35:46;;;;;;;2.55;2.00;;;;;;;23.03;50.56;101777.84;5072712;28;20032;-56
2022/05/19 05:38:11;;;;;;;2.08;1.60;;;;;;;23.03;50.80;101772.41;5081793;28;20028;-57
2022/05/19 05:40:36;;;;;;;2.33;1.77;;;;;;;22.97;50.65;101745.97;5080454;28;20020;-57
2022/05/19 05:43:07;;;;;;;3.00;1.70;;;;;;;23.06;50.65;101753.03;5081764;28;20076;-56
2022/05/19 05:45:32;;;;;;;1.98;1.60;;;;;;;22.86;50.76;101721.94;5073565;28;20017;-56
2022/05/19 05:47:57;;;;;;;1.73;1.55;;;;;;;23.06;50.52;101757.63;5072572;28;20089;-54
2022/05/19 05:50:22;;;;;;;2.00;1.60;;;;;;;23.03;50.55;101749.88;5075209;28;20028;-52
2022/05/19 05:52:48;;;;;;;2.33;1.77;;;;;;;23.09;50.68;101770.84;5080172;28;20072;-55
2022/05/19 05:55:13;;;;;;;2.13;1.92;;;;;;;23.12;50.49;101781.34;5076148;28;20059;-53
2022/05/19 05:57:38;;;;;;;2.05;1.50;;;;;;;23.12;50.50;101774.06;5071782;28;20135;-54
2022/05/19 06:00:07;;;;;;;2.42;1.60;;;;;;;23.14;50.51;101769.28;5074908;28;20086;-51
2022/05/19 06:02:32;;;;;;;;;;;;;;;23.15;50.41;101753.84;5071749;28;20051;-51
2022/05/19 06:04:58;;;;;;;1.98;1.75;;;;;;;23.16;50.52;101753.69;5074085;28;20006;-49
2022/05/19 06:07:23;;;;;;;2.20;1.40;;;;;;;23.15;50.49;101732.16;5073363;28;20454;-52
2022/05/19 06:09:49;;;;;;;1.83;1.42;;;;;;;23.15;50.37;101749.31;5071414;28;20060;-55
2022/05/19 06:12:15;;;;;;;2.58;1.98;;;;;;;23.14;50.43;101755.72;5082534;28;20028;-56
2022/05/19 06:14:40;;;;;;;1.75;1.52;;;;;;;23.16;50.39;101737.44;5083406;28;20047;-58
2022/05/19 06:17:05;;;;;;;1.80;1.70;;;;;;;23.17;50.46;101740.97;5082966;28;20032;-57
2022/05/19 06:19:30;;;;;;;1.88;1.70;;;;;;;23.17;50.54;101735.56;5071651;28;20387;-52
2022/05/19 06:21:56;;;;;;;1.50;1.40;;;;;;;23.18;50.45;101742.66;5071652;28;20036;-54
2022/05/19 06:24:21;;;;;;;2.35;1.50;;;;;;;23.18;50.35;101727.22;5068996;28;20050;-57
2022/05/19 06:26:48;;;;;;;1.30;1.10;;;;;;;23.17;50.53;101711.97;5070928;28;20044;-55
2022/05/19 06:29:13;;;;;;;1.63;1.33;;;;;;;23.20;50.59;101705.38;5076290;28;20484;-54
2022/05/19 06:31:38;;;;;;;2.45;1.50;;;;;;;23.22;50.81;101680.75;5069680;28;20059;-56
2022/05/19 06:34:04;;;;;;;1.90;1.45;;;;;;;23.22;50.65;101683.47;5075997;28;20028;-55
2022/05/19 06:36:29;;;;;;;1.85;1.50;;;;;;;23.19;50.65;101677.41;5072712;28;20040;-56
2022/05/19 06:38:55;;;;;;;2.70;1.45;;;;;;;23.20;50.94;101675.53;5075119;28;20039;-53
2022/05/19 06:44:05;;;;;;;1.67;1.20;;;;;;;23.19;50.75;101662.97;5072548;28;20036;-58
2022/05/19 06:46:30;;;;;;;1.70;1.50;;;;;;;23.15;50.85;101648.06;5075196;28;20032;-57
2022/05/19 06:48:55;;;;;;;1.70;1.33;;;;;;;23.18;51.15;101653.97;5073768;28;20032;-59
2022/05/19 06:51:20;;;;;;;5.13;1.45;;;;;;;23.17;51.10;101638.72;5076696;28;20036;-55
2022/05/19 06:53:46;;;;;;;1.30;1.13;;;;;;;23.17;51.26;101637.88;5062293;28;20037;-53
2022/05/19 06:56:12;;;;;;;1.60;1.40;;;;;;;23.16;51.20;101623.50;5073013;28;20028;-52
2022/05/19 06:58:38;;;;;;;1.88;1.17;;;;;;;23.17;50.91;101656.88;5077854;28;20033;-58
2022/05/19 07:01:03;;;;;;;1.77;1.20;;;;;;;23.12;51.24;101649.28;5078413;28;20107;-58
2022/05/19 07:03:29;;;;;;;1.48;1.20;;;;;;;23.16;51.14;101656.03;5083111;28;20013;-59
2022/05/19 07:05:54;;;;;;;2.20;1.48;;;;;;;23.17;51.24;101660.44;5079848;28;20651;-60
2022/05/19 07:08:19;;;;;;;2.60;1.38;;;;;;;23.17;51.08;101673.16;5069894;28;20069;-60
2022/05/19 07:10:44;;;;;;;1.88;1.30;;;;;;;23.17;51.28;101676.72;5082956;28;20107;-60
2022/05/19 07:13:11;;;;;;;2.22;1.20;;;;;;;23.17;51.60;101673.16;5082592;28;20055;-60
2022/05/19 07:15:36;;;;;;;1.60;1.20;;;;;;;23.17;51.72;101670.44;5074601;28;20024;-60
2022/05/19 07:18:02;;;;;;;1.85;1.50;;;;;;;23.17;51.45;101689.44;5067748;28;20051;-57
2022/05/19 07:20:47;;;;;;;2.60;1.20;;;;;;;23.16;50.83;101702.16;5061527;28;20032;-56
2022/05/19 07:23:16;;;;;;;1.77;1.30;;;;;;;23.18;50.84;101699.25;5077450;28;20021;-55
2022/05/19 07:25:43;;;;;;;2.13;1.58;;;;;;;23.18;50.77;101718.25;5071983;28;20021;-53
2022/05/19 07:28:09;;;;;;;1.40;1.30;;;;;;;23.14;50.86;101719.63;5073486;28;20075;-54
2022/05/19 07:30:34;;;;;;;1.40;1.30;;;;;;;23.20;50.39;101717.06;5075518;28;20020;-53
2022/05/19 07:33:00;;;;;;;2.08;1.50;;;;;;;23.19;50.45;101714.50;5068402;28;20039;-53
2022/05/19 07:35:25;;;;;;;2.33;1.20;;;;;;;23.22;50.46;101719.59;5068694;28;20036;-52
2022/05/19 07:37:52;;;;;;;1.30;1.10;;;;;;;23.23;50.48;101720.44;5070573;28;20025;-54
2022/05/19 07:40:18;;;;;;;2.13;1.50;;;;;;;23.25;50.32;101721.09;5080078;28;20114;-62
2022/05/19 07:42:43;;;;;;;3.65;1.20;;;;;;;23.24;50.33;101724.84;5075871;28;20043;-59
2022/05/19 07:45:10;;;;;;;2.20;1.75;;;;;;;23.24;50.81;101722.97;5071143;28;20032;-59
2022/05/19 07:47:35;;;;;;;2.50;2.08;;;;;;;23.25;51.31;101721.09;5078726;28;20020;-60
2022/05/19 07:50:01;;;;;;;1.42;1.08;;;;;;;23.26;51.37;101717.38;5075325;28;20073;-60
2022/05/19 07:52:26;;;;;;;2.20;1.70;;;;;;;23.25;51.54;101716.53;5069233;28;20037;-59
2022/05/19 07:54:53;;;;;;;1.88;1.30;;;;;;;23.26;51.05;101712.78;5073798;28;20049;-61
2022/05/19 07:57:19;;;;;;;1.58;1.30;;;;;;;23.27;50.92;101716.34;5076504;28;20050;-58
2022/05/19 07:59:44;;;;;;;1.20;1.05;;;;;;;23.28;50.79;101716.19;5082199;28;20032;-61
2022/05/19 08:02:09;;;;;;;1.90;1.70;;;;;;;23.27;50.79;101713.63;5078173;28;20025;-60
2022/05/19 08:04:35;;;;;;;1.55;1.45;;;;;;;23.28;50.69;101716.19;5077127;28;20024;-61
2022/05/19 08:07:03;;;;;;;2.03;1.40;;;;;;;23.29;50.86;101709.72;5081925;28;20035;-61
2022/05/19 08:17:54;;;;;;;1.73;1.30;;;;;;;23.31;50.87;101710.38;5079867;28;20039;-60
2022/05/19 08:20:19;;;;;;;2.45;1.25;;;;;;;23.31;50.86;101704.09;5080647;28;20032;-61
2022/05/19 08:22:45;;;;;;;2.45;1.20;;;;;;;23.32;50.77;101695.81;5086041;28;20024;-61
2022/05/19 08:25:11;;;;;;;1.70;1.30;;;;;;;23.33;50.77;101704.78;5077576;28;20033;-61
2022/05/19 08:27:36;;;;;;;2.63;1.20;;;;;;;23.35;50.64;101697.28;5085694;28;20089;-62
2022/05/19 08:30:01;;;;;;;1.83;1.20;;;;;;;23.36;50.73;101696.25;5085597;28;20040;-60
2022/05/19 08:32:26;;;;;;;1.70;1.40;;;;;;;23.38;50.61;101688.81;5084991;28;20035;-60
2022/05/19 08:34:52;;;;;;;1.98;1.20;;;;;;;23.38;50.45;101689.66;5076562;28;20048;-61
2022/05/19 08:37:17;;;;;;;1.92;1.20;;;;;;;23.40;50.64;101697.59;5084854;28;20024;-60
2022/05/19 08:39:42;;;;;;;2.78;1.52;;;;;;;23.42;50.64;101698.28;5087664;28;20031;-61
2022/05/19 08:42:08;;;;;;;1.50;1.30;;;;;;;23.40;50.51;101682.16;5084926;28;20036;-62
2022/05/19 08:44:41;;;;;;;1.67;1.08;;;;;;;23.43;50.36;101683.69;5084175;28;20032;-62
2022/05/19 08:47:08;;;;;;;1.75;1.10;;;;;;;23.43;50.44;101684.50;5083263;28;20020;-61
2022/05/19 08:49:46;;;;;;;1.73;1.10;;;;;;;23.44;50.27;101677.22;5075271;28;20036;-61
2022/05/19 08:52:15;;;;;;;1.57;1.10;;;;;;;23.45;49.96;101671.63;5077867;28;20025;-59
2022/05/19 08:54:44;;;;;;;1.60;1.30;;;;;;;23.44;50.37;101664.50;5075324;28;20051;-53
2022/05/19 08:57:19;;;;;;;2.30;1.45;;;;;;;23.49;50.37;101668.53;5080395;28;20057;-48
2022/05/19 09:00:04;;;;;;;1.70;1.20;;;;;;;23.50;50.17;101671.09;5081166;28;20053;-48
2022/05/19 09:02:46;;;;;;;1.17;1.08;;;;;;;23.54;50.20;101671.56;5076900;28;20031;-57
2022/05/19 09:05:25;;;;;;;1.45;1.33;;;;;;;23.55;50.00;101686.81;5074047;28;20071;-54
2022/05/19 09:07:59;;;;;;;1.73;1.25;;;;;;;23.58;49.90;101702.75;5075508;28;20029;-53
2022/05/19 09:10:58;;;;;;;1.40;1.17;;;;;;;23.59;49.85;101702.56;5076533;28;20064;-54
2022/05/19 09:13:32;;;;;;;1.45;1.13;;;;;;;23.62;49.88;101702.22;5071446;28;20029;-54
2022/05/19 09:16:00;;;;;;;1.85;1.20;;;;;;;23.63;49.75;101708.50;5073572;28;20080;-52
2022/05/19 09:18:36;;;;;;;1.48;1.13;;;;;;;23.64;49.87;101705.59;5077223;28;20036;-55
2022/05/19 09:21:03;;;;;;;2.67;1.27;;;;;;;23.65;49.77;101698.31;5075492;28;20040;-55
2022/05/19 09:23:29;;;;;;;1.77;1.10;;;;;;;23.66;49.88;101706.28;5077750;28;20029;-52
2022/05/19 09:26:16;;;;;;;2.25;1.35;;;;;;;23.66;49.85;101695.44;5076953;28;20034;-52
2022/05/19 09:28:44;;;;;;;1.98;1.38;;;;;;;23.67;50.24;101694.41;5081148;28;20028;-53
2022/05/19 09:31:12;;;;;;;2.75;1.75;;;;;;;23.67;50.47;101697.13;5073325;28;20037;-53
2022/05/19 09:33:42;;;;;;;3.13;1.60;;;;;;;23.70;50.18;101695.88;5075862;28;20028;-58
2022/05/19 09:36:11;;;;;;;2.95;1.60;;;;;;;23.68;50.12;101684.38;5067528;28;20024;-59
2022/05/19 09:38:48;;;;;;;2.92;1.60;;;;;;;23.71;50.20;101677.75;5078342;28;20055;-59
2022/05/19 09:41:31;;;;;;;3.42;1.90;;;;;;;23.72;50.23;101683.00;5073063;28;20060;-60
2022/05/19 09:43:58;;;;;;;3.75;2.00;;;;;;;23.74;50.09;101688.22;5082238;28;20027;-59
2022/05/19 09:46:24;;;;;;;3.33;2.05;;;;;;;23.75;50.13;101689.94;5076840;28;20044;-59
2022/05/19 09:49:01;;;;;;;3.55;2.28;;;;;;;23.76;50.57;101692.47;5066945;28;20107;-59
2022/05/19 09:51:40;;;;;;;3.38;1.95;;;;;;;23.78;50.93;101697.69;5073902;28;20055;-60
2022/05/19 09:54:05;;;;;;;3.30;2.08;;;;;;;23.74;51.06;101686.34;5075238;28;20049;-60
2022/05/19 09:56:39;;;;;;;3.97;2.10;;;;;;;23.75;51.06;101692.66;5075535;28;20056;-60
2022/05/19 09:59:14;;;;;;;3.08;2.17;;;;;;;23.78;51.23;101703.97;5072225;28;20588;-58
2022/05/19 10:01:45;;;;;;;3.13;1.92;;;;;;;23.77;51.48;101693.31;5073537;28;20032;-59
2022/05/19 10:04:32;;;;;;;2.70;1.90;;;;;;;23.76;50.97;101697.91;5076407;28;20016;-58
2022/05/19 10:07:06;;;;;;;2.55;1.77;;;;;;;23.76;50.68;101691.63;5075127;28;20020;-58
2022/05/19 10:09:34;;;;;;;3.85;2.03;;;;;;;23.72;50.27;101685.72;5053845;28;20033;-60
2022/05/19 10:12:08;;;;;;;5.00;2.80;;;;;;;23.74;50.19;101686.34;5074433;28;20046;-59
2022/05/19 10:14:35;;;;;;;5.07;2.40;;;;;;;23.75;50.29;101685.34;5079558;28;20398;-61
2022/05/19 10:17:22;;;;;;;4.22;2.53;;;;;;;23.73;50.83;101679.25;5076352;28;20085;-59
2022/05/19 10:20:10;;;;;;;4.65;2.83;;;;;;;23.74;51.32;101666.50;5072786;28;20036;-59
2022/05/19 10:22:54;;;;;;;5.18;3.28;;;;;;;23.74;51.39;101661.06;5072984;28;20048;-60
2022/05/19 10:25:52;;;;;;;3.13;2.60;;;;;;;23.73;51.37;101651.25;5080567;28;20036;-59
2022/05/19 10:31:37;;;;;;;5.10;2.63;;;;;;;23.73;51.58;101624.94;5069379;28;20616;-59
2022/05/19 10:34:27;;;;;;;6.00;2.80;;;;;;;23.73;51.79;101616.78;5077611;28;20037;-59
2022/05/19 10:37:23;;;;;;;4.53;2.78;;;;;;;23.77;51.84;101617.28;5079752;28;20028;-58
2022/05/19 10:40:10;;;;;;;2.92;2.05;;;;;;;23.78;51.73;101624.38;5078286;28;20025;-59
2022/05/19 10:42:44;;;;;;;4.18;2.38;;;;;;;23.78;51.68;101611.66;5075933;28;20536;-59
2022/05/19 10:45:33;;;;;;;4.80;2.55;;;;;;;23.78;51.91;101598.06;5070602;28;20037;-58
2022/05/19 10:48:04;;;;;;;2.90;2.30;;;;;;;23.82;51.51;101591.25;5074515;28;20711;-59
2022/05/19 10:50:37;;;;;;;5.00;2.35;;;;;;;23.84;51.63;101596.50;5073088;28;20064;-57
2022/05/19 10:53:05;;;;;;;3.15;2.10;;;;;;;23.85;51.56;101588.16;5070784;28;20032;-58
2022/05/19 10:55:37;;;;;;;2.60;2.28;;;;;;;23.86;51.71;101595.28;5069549;28;20406;-58
2022/05/19 10:58:12;;;;;;;2.40;2.05;;;;;;;23.87;51.85;101593.41;5078168;28;20096;-58
2022/05/19 11:00:53;;;;;;;3.20;2.42;;;;;;;23.91;51.67;101583.84;5076711;28;20031;-59
2022/05/19 11:03:40;;;;;;;4.20;2.58;;;;;;;23.91;51.90;101589.28;5074089;28;20025;-59
2022/05/19 11:06:24;;;;;;;2.97;2.45;;;;;;;23.90;51.79;101572.16;5073024;28;20027;-59
2022/05/19 11:09:00;;;;;;;4.28;2.28;;;;;;;23.92;51.75;101580.13;5074444;28;20036;-58
2022/05/19 11:11:29;;;;;;;3.53;2.17;;;;;;;23.91;51.64;101587.41;5071703;28;20453;-58
2022/05/19 11:14:32;;;;;;;2.97;2.08;;;;;;;23.93;51.73;101601.66;5074987;28;20112;-59
2022/05/19 11:17:20;;;;;;;2.78;2.30;;;;;;;23.93;51.79;101598.94;5077210;28;20028;-60
2022/05/19 11:19:54;;;;;;;3.28;2.30;;;;;;;23.93;51.69;101596.22;5059683;28;20052;-58
2022/05/19 11:22:26;;;;;;;3.67;2.20;;;;;;;23.93;51.80;101592.69;5070150;28;20036;-58
2022/05/19 11:27:47;;;;;;;3.88;2.40;;;;;;;23.92;52.20;101572.81;5075591;28;20048;-58
2022/05/19 11:30:18;;;;;;;2.50;1.98;;;;;;;23.97;51.87;101566.84;5073445;28;20489;-59
2022/05/19 11:32:44;;;;;;;2.72;2.13;;;;;;;23.98;52.03;101552.22;5069989;28;20077;-57
2022/05/19 11:35:26;;;;;;;2.95;2.20;;;;;;;23.99;52.07;101551.19;5067150;28;20035;-58
2022/05/19 11:38:36;;;;;;;3.75;2.40;;;;;;;23.99;51.91;101567.47;5074938;28;20497;-57
2022/05/19 11:41:08;;;;;;;3.20;2.55;;;;;;;23.99;52.07;101567.47;5018681;28;20056;-57
2022/05/19 11:43:56;;;;;;;2.78;2.47;;;;;;;23.97;51.93;101568.72;5018074;28;20034;-58
2022/05/19 11:46:23;;;;;;;;;;;;;;;23.97;51.94;101568.72;5012304;28;20050;-60
2022/05/19 11:55:20;;;;;;;2.80;2.30;;;;;;;23.88;52.59;101552.50;5017256;28;20108;-54
2022/05/19 11:57:54;;;;;;;2.72;2.00;;;;;;;23.87;52.49;101550.81;5020892;28;20037;-53
2022/05/19 12:00:36;;;;;;;2.95;1.90;;;;;;;23.86;52.59;101553.69;5021333;28;20042;-53
2022/05/19 12:03:09;;;;;;;2.60;1.75;;;;;;;23.85;52.50;101565.59;5021366;28;20101;-54